createdAt,value
2018-01-30T00:01:47.011Z,7.09
2018-01-30T00:02:46.011Z,7.15
2018-01-30T00:04:42.433Z,6.97
2018-01-30T00:05:41.926Z,6.97
2018-01-30T00:07:37.314Z,7.04
2018-01-30T00:08:37.310Z,7.09
2018-01-30T00:10:34.258Z,7.00
2018-01-30T00:11:33.237Z,6.98
2018-01-30T00:13:28.209Z,7.11
2018-01-30T00:14:28.193Z,7.01
2018-01-30T00:16:23.631Z,6.95
2018-01-30T00:17:23.621Z,6.93
2018-01-30T00:19:18.043Z,7.08
2018-01-30T00:21:32.514Z,7.01
2018-01-30T00:22:32.485Z,7.05
2018-01-30T00:24:28.416Z,7.09
2018-01-30T00:25:28.924Z,7.09
2018-01-30T00:27:24.303Z,6.94
2018-01-30T00:28:24.311Z,6.95
2018-01-30T00:30:20.253Z,6.90
2018-01-30T00:31:20.755Z,6.91
2018-01-30T00:33:16.702Z,6.85
2018-01-30T00:34:16.193Z,6.83
2018-01-30T00:36:10.652Z,6.82
2018-01-30T00:37:09.611Z,6.83
2018-01-30T00:39:05.059Z,6.80
2018-01-30T00:40:04.566Z,6.82
2018-01-30T00:41:59.989Z,6.75
2018-01-30T00:42:59.985Z,6.68
2018-01-30T00:44:54.956Z,6.67
2018-01-30T00:45:54.422Z,6.73
2018-01-30T00:47:50.864Z,6.72
2018-01-30T00:48:50.310Z,6.68
2018-01-30T00:50:46.761Z,6.72
2018-01-30T00:51:46.247Z,6.72
2018-01-30T00:53:42.190Z,6.73
2018-01-30T00:54:42.182Z,6.67
2018-01-30T00:56:39.643Z,6.70
2018-01-30T00:57:38.631Z,6.58
2018-01-30T00:59:34.126Z,6.60
2018-01-30T01:00:34.033Z,6.52
2018-01-30T01:02:29.967Z,6.46
2018-01-30T01:03:29.980Z,6.43
2018-01-30T01:05:27.907Z,6.25
2018-01-30T01:06:27.894Z,6.14
2018-01-30T01:08:23.873Z,6.14
2018-01-30T01:09:24.783Z,6.00
2018-01-30T01:11:18.784Z,6.06
2018-01-30T01:13:34.729Z,6.00
2018-01-30T01:14:34.196Z,5.88
2018-01-30T01:16:27.858Z,5.82
2018-01-30T01:17:28.137Z,5.67
2018-01-30T01:19:24.641Z,5.70
2018-01-30T01:20:23.526Z,5.62
2018-01-30T01:22:32.279Z,5.78
2018-01-30T01:23:32.259Z,5.78
2018-01-30T01:25:25.691Z,5.84
2018-01-30T01:26:26.210Z,5.75
2018-01-30T01:28:22.654Z,5.77
2018-01-30T01:29:22.779Z,5.84
2018-01-30T01:31:18.593Z,5.80
2018-01-30T01:32:18.579Z,5.87
2018-01-30T01:34:14.262Z,5.88
2018-01-30T01:35:14.238Z,5.87
2018-01-30T01:37:10.194Z,5.64
2018-01-30T01:40:06.674Z,5.48
2018-01-30T01:41:05.654Z,5.52
2018-01-30T01:43:03.613Z,5.44
2018-01-30T01:44:04.533Z,5.37
2018-01-30T01:46:01.032Z,5.41
2018-01-30T01:47:00.276Z,5.42
2018-01-30T01:48:57.160Z,5.48
2018-01-30T01:49:57.126Z,5.55
2018-01-30T01:52:04.891Z,5.63
2018-01-30T01:52:58.576Z,5.63
2018-01-30T01:55:02.904Z,5.78
2018-01-30T01:55:54.435Z,5.78
2018-01-30T01:57:50.862Z,5.75
2018-01-30T01:58:50.368Z,5.63
2018-01-30T02:00:47.266Z,5.57
2018-01-30T02:01:46.274Z,5.55
2018-01-30T02:03:42.683Z,5.55
2018-01-30T02:04:42.177Z,5.75
2018-01-30T02:06:38.102Z,5.69
2018-01-30T02:07:37.602Z,5.77
2018-01-30T02:09:37.037Z,5.77
2018-01-30T02:10:36.164Z,5.59
2018-01-30T02:12:32.099Z,5.54
2018-01-30T02:13:32.115Z,5.49
2018-01-30T02:15:30.582Z,5.42
2018-01-30T02:16:30.127Z,5.34
2018-01-30T02:18:26.092Z,5.34
2018-01-30T02:19:26.802Z,5.41
2018-01-30T02:21:28.496Z,5.45
2018-01-30T02:22:21.991Z,5.46
2018-01-30T02:24:17.950Z,5.59
2018-01-30T02:25:18.434Z,5.51
2018-01-30T02:27:13.844Z,5.41
2018-01-30T02:28:15.646Z,5.39
2018-01-30T02:30:36.304Z,5.37
2018-01-30T02:32:51.514Z,5.31
2018-01-30T02:33:51.007Z,5.34
2018-01-30T02:35:46.955Z,5.37
2018-01-30T02:36:46.932Z,5.36
2018-01-30T02:38:43.482Z,5.37
2018-01-30T02:41:39.920Z,5.36
2018-01-30T02:44:36.376Z,5.21
2018-01-30T02:45:35.913Z,5.21
2018-01-30T02:47:31.256Z,5.28
2018-01-30T02:48:31.223Z,5.27
2018-01-30T02:50:27.151Z,5.12
2018-01-30T02:51:27.155Z,5.15
2018-01-30T02:53:23.605Z,5.16
2018-01-30T02:54:23.595Z,5.15
2018-01-30T02:56:19.048Z,5.13
2018-01-30T02:57:19.017Z,5.12
2018-01-30T02:59:14.963Z,5.20
2018-01-30T03:00:15.467Z,5.18
2018-01-30T03:02:10.936Z,5.20
2018-01-30T03:03:11.406Z,5.02
2018-01-30T03:05:06.832Z,5.06
2018-01-30T03:06:06.827Z,5.08
2018-01-30T03:08:03.265Z,5.02
2018-01-30T03:09:03.274Z,4.92
2018-01-30T03:10:58.722Z,4.83
2018-01-30T03:11:58.693Z,4.68
2018-01-30T03:13:54.644Z,4.74
2018-01-30T03:14:55.146Z,4.68
2018-01-30T03:16:49.064Z,4.74
2018-01-30T03:17:49.039Z,4.76
2018-01-30T03:19:45.994Z,4.79
2018-01-30T03:20:44.972Z,4.72
2018-01-30T03:22:41.417Z,4.85
2018-01-30T03:23:40.891Z,4.84
2018-01-30T03:25:36.856Z,4.78
2018-01-30T03:26:37.332Z,4.76
2018-01-30T03:28:33.279Z,4.71
2018-01-30T03:29:32.747Z,4.79
2018-01-30T03:31:28.656Z,4.75
2018-01-30T03:32:28.666Z,4.69
2018-01-30T03:34:23.101Z,4.75
2018-01-30T03:35:23.104Z,4.85
2018-01-30T03:37:21.061Z,4.91
2018-01-30T03:38:21.635Z,4.79
2018-01-30T03:40:16.926Z,4.79
2018-01-30T03:41:16.908Z,4.78
2018-01-30T03:43:11.379Z,4.74
2018-01-30T03:44:11.340Z,4.66
2018-01-30T03:46:07.786Z,4.60
2018-01-30T03:47:07.270Z,4.66
2018-01-30T03:49:04.714Z,4.69
2018-01-30T03:50:03.214Z,4.68
2018-01-30T03:51:59.121Z,4.66
2018-01-30T03:52:59.117Z,4.65
2018-01-30T03:54:55.567Z,4.64
2018-01-30T03:55:55.058Z,4.61
2018-01-30T03:57:51.491Z,4.53
2018-01-30T03:58:51.499Z,4.53
2018-01-30T04:00:47.888Z,4.58
2018-01-30T04:01:46.875Z,4.51
2018-01-30T04:03:43.323Z,4.46
2018-01-30T04:04:43.324Z,4.47
2018-01-30T04:06:39.348Z,4.44
2018-01-30T04:07:38.727Z,4.50
2018-01-30T04:09:35.659Z,4.53
2018-01-30T04:10:35.165Z,4.61
2018-01-30T04:12:30.625Z,4.54
2018-01-30T04:13:32.095Z,4.71
2018-01-30T04:15:28.999Z,4.58
2018-01-30T04:16:28.487Z,4.57
2018-01-30T04:18:24.442Z,4.57
2018-01-30T04:19:24.392Z,4.53
2018-01-30T04:21:20.366Z,4.53
2018-01-30T04:22:20.840Z,4.47
2018-01-30T04:24:16.272Z,4.36
2018-01-30T04:25:16.275Z,4.44
2018-01-30T04:27:12.194Z,4.39
2018-01-30T04:28:12.730Z,4.38
2018-01-30T04:30:08.114Z,4.36
2018-01-30T04:31:08.096Z,4.38
2018-01-30T04:33:04.065Z,4.33
2018-01-30T04:34:04.535Z,4.32
2018-01-30T04:36:00.475Z,4.28
2018-01-30T04:37:00.454Z,4.17
2018-01-30T04:38:56.903Z,4.32
2018-01-30T04:39:55.900Z,4.38
2018-01-30T04:41:51.858Z,4.40
2018-01-30T04:42:51.834Z,4.30
2018-01-30T04:44:48.702Z,4.28
2018-01-30T04:45:48.273Z,4.40
2018-01-30T04:47:44.188Z,4.50
2018-01-30T04:48:43.645Z,4.50
2018-01-30T04:50:39.593Z,4.36
2018-01-30T04:51:40.088Z,4.39
2018-01-30T04:53:35.516Z,4.32
2018-01-30T04:54:35.465Z,4.32
2018-01-30T04:56:31.930Z,4.39
2018-01-30T04:57:31.404Z,4.38
2018-01-30T04:59:26.350Z,4.35
2018-01-30T05:00:24.866Z,4.42
2018-01-30T05:02:19.810Z,4.38
2018-01-30T05:03:19.284Z,4.47
2018-01-30T05:05:14.815Z,4.58
2018-01-30T05:06:13.705Z,4.51
2018-01-30T05:08:09.638Z,4.56
2018-01-30T05:09:09.618Z,4.64
2018-01-30T05:11:05.627Z,4.71
2018-01-30T05:12:05.643Z,4.60
2018-01-30T05:14:01.485Z,4.60
2018-01-30T05:15:01.475Z,4.61
2018-01-30T05:16:56.918Z,4.54
2018-01-30T05:17:55.897Z,4.57
2018-01-30T05:19:52.337Z,4.54
2018-01-30T05:20:51.807Z,4.46
2018-01-30T05:22:46.271Z,4.46
2018-01-30T05:23:46.242Z,4.38
2018-01-30T05:25:42.212Z,4.54
2018-01-30T05:26:42.686Z,4.44
2018-01-30T05:28:36.633Z,4.42
2018-01-30T05:29:36.627Z,4.46
2018-01-30T05:31:31.078Z,4.53
2018-01-30T05:32:31.037Z,4.48
2018-01-30T05:34:25.496Z,4.47
2018-01-30T05:35:25.465Z,4.46
2018-01-30T05:37:21.439Z,4.53
2018-01-30T05:38:21.934Z,4.57
2018-01-30T05:40:17.289Z,4.51
2018-01-30T05:41:17.279Z,4.48
2018-01-30T05:43:11.749Z,4.57
2018-01-30T05:44:11.712Z,4.54
2018-01-30T05:46:06.669Z,4.40
2018-01-30T05:47:06.142Z,4.40
2018-01-30T05:49:06.091Z,4.36
2018-01-30T05:50:05.088Z,4.36
2018-01-30T05:52:01.305Z,4.39
2018-01-30T05:53:00.278Z,4.44
2018-01-30T05:54:56.245Z,4.42
2018-01-30T05:55:56.214Z,4.36
2018-01-30T05:57:52.661Z,4.38
2018-01-30T05:58:52.139Z,4.39
2018-01-30T06:00:48.637Z,4.40
2018-01-30T06:01:48.590Z,4.33
2018-01-30T06:03:42.528Z,4.42
2018-01-30T06:04:42.488Z,4.35
2018-01-30T06:06:36.934Z,4.38
2018-01-30T06:07:35.908Z,4.42
2018-01-30T06:09:31.875Z,4.36
2018-01-30T06:10:31.849Z,4.36
2018-01-30T06:12:29.287Z,4.38
2018-01-30T06:13:28.286Z,4.35
2018-01-30T06:15:23.250Z,4.40
2018-01-30T06:16:22.171Z,4.40
2018-01-30T06:18:16.601Z,4.29
2018-01-30T06:19:16.584Z,4.32
2018-01-30T06:21:13.044Z,4.35
2018-01-30T06:22:13.032Z,4.33
2018-01-30T06:24:06.941Z,4.29
2018-01-30T06:25:06.935Z,4.33
2018-01-30T06:27:03.894Z,4.29
2018-01-30T06:28:02.822Z,4.32
2018-01-30T06:30:01.289Z,4.38
2018-01-30T06:31:00.755Z,4.42
2018-01-30T06:32:56.626Z,4.44
2018-01-30T06:33:55.181Z,4.44
2018-01-30T06:35:51.152Z,4.42
2018-01-30T06:36:51.097Z,4.48
2018-01-30T06:38:45.557Z,4.44
2018-01-30T06:39:45.533Z,4.48
2018-01-30T06:41:39.995Z,4.46
2018-01-30T06:42:40.485Z,4.51
2018-01-30T06:44:36.933Z,4.54
2018-01-30T06:45:35.924Z,4.50
2018-01-30T06:47:31.860Z,4.48
2018-01-30T06:48:32.360Z,4.48
2018-01-30T06:50:26.739Z,4.53
2018-01-30T06:51:26.731Z,4.48
2018-01-30T06:53:22.153Z,4.50
2018-01-30T06:54:22.111Z,4.47
2018-01-30T06:56:16.529Z,4.53
2018-01-30T06:57:16.531Z,4.42
2018-01-30T06:59:12.986Z,4.47
2018-01-30T07:00:12.990Z,4.48
2018-01-30T07:02:07.400Z,4.50
2018-01-30T07:03:06.868Z,4.54
2018-01-30T07:05:01.838Z,4.53
2018-01-30T07:06:01.826Z,4.58
2018-01-30T07:07:55.792Z,4.64
2018-01-30T07:08:55.735Z,4.56
2018-01-30T07:10:50.681Z,4.56
2018-01-30T07:11:50.162Z,4.58
2018-01-30T07:13:45.117Z,4.57
2018-01-30T07:14:44.598Z,4.61
2018-01-30T07:16:41.058Z,4.61
2018-01-30T07:17:40.516Z,4.60
2018-01-30T07:19:36.494Z,4.58
2018-01-30T07:20:36.437Z,4.60
2018-01-30T07:22:32.403Z,4.60
2018-01-30T07:23:32.358Z,4.61
2018-01-30T07:25:28.807Z,4.56
2018-01-30T07:26:28.298Z,4.58
2018-01-30T07:28:24.234Z,4.57
2018-01-30T07:29:24.242Z,4.50
2018-01-30T07:31:20.163Z,4.57
2018-01-30T07:32:21.686Z,4.58
2018-01-30T07:34:16.108Z,4.60
2018-01-30T07:35:16.589Z,4.57
2018-01-30T07:37:12.543Z,4.61
2018-01-30T07:38:12.514Z,4.57
2018-01-30T07:40:07.945Z,4.61
2018-01-30T07:41:08.424Z,4.69
2018-01-30T07:43:04.857Z,4.60
2018-01-30T07:44:03.843Z,4.65
2018-01-30T07:46:00.423Z,4.75
2018-01-30T07:46:59.770Z,4.65
2018-01-30T07:48:56.232Z,4.75
2018-01-30T07:49:55.702Z,4.69
2018-01-30T07:51:51.662Z,4.87
2018-01-30T07:52:51.651Z,4.69
2018-01-30T07:54:48.579Z,4.72
2018-01-30T07:55:47.553Z,4.79
2018-01-30T07:57:43.518Z,4.91
2018-01-30T07:58:43.441Z,4.91
2018-01-30T08:00:39.401Z,4.87
2018-01-30T08:01:39.359Z,4.78
2018-01-30T08:03:35.336Z,4.92
2018-01-30T08:04:35.314Z,4.87
2018-01-30T08:06:29.763Z,4.95
2018-01-30T08:07:29.749Z,4.97
2018-01-30T08:09:25.667Z,4.97
2018-01-30T08:10:25.665Z,5.02
2018-01-30T08:12:21.649Z,5.06
2018-01-30T08:13:21.624Z,5.05
2018-01-30T08:15:19.591Z,5.18
2018-01-30T08:16:19.549Z,5.10
2018-01-30T08:18:14.500Z,5.23
2018-01-30T08:19:14.522Z,5.26
2018-01-30T08:21:07.913Z,5.28
2018-01-30T08:22:07.422Z,5.26
2018-01-30T08:24:04.345Z,5.41
2018-01-30T08:25:03.339Z,5.42
2018-01-30T08:26:59.786Z,5.42
2018-01-30T08:27:59.206Z,5.44
2018-01-30T08:29:55.661Z,5.37
2018-01-30T08:30:55.662Z,5.37
2018-01-30T08:32:51.097Z,5.45
2018-01-30T08:33:51.079Z,5.52
2018-01-30T08:35:47.040Z,5.60
2018-01-30T08:36:47.005Z,5.62
2018-01-30T08:38:41.428Z,5.70
2018-01-30T08:39:41.459Z,5.69
2018-01-30T08:41:37.378Z,5.66
2018-01-30T08:42:37.883Z,5.72
2018-01-30T08:44:34.255Z,5.82
2018-01-30T08:45:33.298Z,5.85
2018-01-30T08:47:29.199Z,5.85
2018-01-30T08:48:29.198Z,5.88
2018-01-30T08:50:25.132Z,6.02
2018-01-30T08:51:25.133Z,5.88
2018-01-30T08:53:21.586Z,6.07
2018-01-30T08:54:21.576Z,6.05
2018-01-30T08:56:17.070Z,6.07
2018-01-30T08:57:16.996Z,6.13
2018-01-30T08:59:13.962Z,6.09
2018-01-30T09:00:14.452Z,6.14
2018-01-30T09:02:09.825Z,6.17
2018-01-30T09:03:09.346Z,6.20
2018-01-30T09:05:04.837Z,6.21
2018-01-30T09:06:05.250Z,6.21
2018-01-30T09:08:00.769Z,6.18
2018-01-30T09:09:00.212Z,6.29
2018-01-30T09:10:56.173Z,6.31
2018-01-30T09:11:57.611Z,6.34
2018-01-30T09:13:52.620Z,6.36
2018-01-30T09:14:52.595Z,6.40
2018-01-30T09:16:48.521Z,6.46
2018-01-30T09:17:48.950Z,6.42
2018-01-30T09:19:42.482Z,6.42
2018-01-30T09:20:42.459Z,6.47
2018-01-30T09:22:38.883Z,6.49
2018-01-30T09:23:38.354Z,6.47
2018-01-30T09:25:34.813Z,6.51
2018-01-30T09:26:34.293Z,6.54
2018-01-30T09:28:30.233Z,6.58
2018-01-30T09:29:30.217Z,6.61
2018-01-30T09:31:26.178Z,6.62
2018-01-30T09:32:26.172Z,6.57
2018-01-30T09:34:22.133Z,6.68
2018-01-30T09:35:23.126Z,6.67
2018-01-30T09:37:19.091Z,6.73
2018-01-30T09:38:18.592Z,6.73
2018-01-30T09:40:12.499Z,6.73
2018-01-30T09:41:12.472Z,6.76
2018-01-30T09:43:08.439Z,6.90
2018-01-30T09:44:08.436Z,6.82
2018-01-30T09:46:04.376Z,6.88
2018-01-30T09:47:02.896Z,6.93
2018-01-30T09:48:59.362Z,7.00
2018-01-30T09:49:58.826Z,7.03
2018-01-30T09:51:55.286Z,7.16
2018-01-30T09:52:54.763Z,7.08
2018-01-30T09:54:50.708Z,7.16
2018-01-30T09:55:50.685Z,7.11
2018-01-30T09:57:46.592Z,7.22
2018-01-30T09:58:46.585Z,7.22
2018-01-30T10:00:42.552Z,7.31
2018-01-30T10:01:42.507Z,7.37
2018-01-30T10:03:38.447Z,7.37
2018-01-30T10:04:38.436Z,7.49
2018-01-30T10:06:35.890Z,7.44
2018-01-30T10:07:34.384Z,7.49
2018-01-30T10:09:30.319Z,7.52
2018-01-30T10:10:30.305Z,7.56
2018-01-30T10:12:26.272Z,7.58
2018-01-30T10:13:26.245Z,7.48
2018-01-30T10:15:22.177Z,7.68
2018-01-30T10:16:22.694Z,7.67
2018-01-30T10:18:18.134Z,7.73
2018-01-30T10:19:18.629Z,7.77
2018-01-30T10:21:14.593Z,7.80
2018-01-30T10:22:14.044Z,7.78
2018-01-30T10:24:11.004Z,7.95
2018-01-30T10:25:10.010Z,8.03
2018-01-30T10:27:05.898Z,8.10
2018-01-30T10:28:05.890Z,8.09
2018-01-30T10:30:02.845Z,8.11
2018-01-30T10:31:01.860Z,8.14
2018-01-30T10:32:57.771Z,8.11
2018-01-30T10:33:57.759Z,8.22
2018-01-30T10:35:54.714Z,8.24
2018-01-30T10:36:53.706Z,8.24
2018-01-30T10:38:50.660Z,8.26
2018-01-30T10:39:49.665Z,8.31
2018-01-30T10:41:45.599Z,8.31
2018-01-30T10:42:45.584Z,8.26
2018-01-30T10:44:41.562Z,8.22
2018-01-30T10:45:41.518Z,8.28
2018-01-30T10:47:37.424Z,8.35
2018-01-30T10:48:37.437Z,8.32
2018-01-30T10:50:33.386Z,8.43
2018-01-30T10:51:33.345Z,8.34
2018-01-30T10:53:29.799Z,8.36
2018-01-30T10:54:29.274Z,8.49
2018-01-30T10:56:26.217Z,8.49
2018-01-30T10:57:25.217Z,8.60
2018-01-30T10:59:21.180Z,8.57
2018-01-30T11:00:21.155Z,8.65
2018-01-30T11:02:17.629Z,8.79
2018-01-30T11:03:17.610Z,8.68
2018-01-30T11:05:13.534Z,8.71
2018-01-30T11:06:13.041Z,8.79
2018-01-30T11:08:09.015Z,8.95
2018-01-30T11:09:10.420Z,9.01
2018-01-30T11:11:02.911Z,9.17
2018-01-30T11:12:02.397Z,9.24
2018-01-30T11:14:00.874Z,9.19
2018-01-30T11:15:00.444Z,9.20
2018-01-30T11:16:56.333Z,9.30
2018-01-30T11:17:56.356Z,9.34
2018-01-30T11:19:51.805Z,9.26
2018-01-30T11:20:50.770Z,9.21
2018-01-30T11:22:48.744Z,9.09
2018-01-30T11:23:48.715Z,9.19
2018-01-30T11:25:47.215Z,9.20
2018-01-30T11:26:47.651Z,9.11
2018-01-30T11:28:45.170Z,9.19
2018-01-30T11:29:44.740Z,9.16
2018-01-30T11:31:44.214Z,9.20
2018-01-30T11:32:43.695Z,9.34
2018-01-30T11:34:40.838Z,9.48
2018-01-30T11:35:40.863Z,9.55
2018-01-30T11:37:35.279Z,9.63
2018-01-30T11:38:35.222Z,9.60
2018-01-30T11:40:33.142Z,9.70
2018-01-30T11:41:33.146Z,9.77
2018-01-30T11:43:31.131Z,9.85
2018-01-30T11:44:31.615Z,9.82
2018-01-30T11:46:32.042Z,9.90
2018-01-30T11:47:29.556Z,9.93
2018-01-30T11:49:25.553Z,9.99
2018-01-30T11:50:25.001Z,10.13
2018-01-30T11:53:20.935Z,10.00
2018-01-30T11:55:17.790Z,9.84
2018-01-30T11:56:16.985Z,9.80
2018-01-30T11:58:14.792Z,9.66
2018-01-30T11:59:14.796Z,9.70
2018-01-30T12:01:13.270Z,9.55
2018-01-30T12:02:13.328Z,9.53
2018-01-30T12:04:12.173Z,9.30
2018-01-30T12:05:11.202Z,9.30
2018-01-30T12:07:06.624Z,9.29
2018-01-30T12:08:06.583Z,9.44
2018-01-30T12:10:02.587Z,9.34
2018-01-30T12:11:02.543Z,9.16
2018-01-30T12:12:58.488Z,9.14
2018-01-30T12:13:58.976Z,9.12
2018-01-30T12:15:54.377Z,9.23
2018-01-30T12:16:55.914Z,9.14
2018-01-30T12:18:51.876Z,9.09
2018-01-30T12:19:51.325Z,9.12
2018-01-30T12:21:49.836Z,9.12
2018-01-30T12:22:49.402Z,9.16
2018-01-30T12:24:46.437Z,9.11
2018-01-30T12:25:45.386Z,9.12
2018-01-30T12:27:44.331Z,8.95
2018-01-30T12:28:43.431Z,8.80
2018-01-30T12:30:42.353Z,8.69
2018-01-30T12:31:41.864Z,8.77
2018-01-30T12:33:39.381Z,8.69
2018-01-30T12:34:39.269Z,8.77
2018-01-30T12:36:37.168Z,8.76
2018-01-30T12:37:37.179Z,8.76
2018-01-30T12:39:35.648Z,8.76
2018-01-30T12:40:35.264Z,8.80
2018-01-30T12:42:33.248Z,8.67
2018-01-30T12:43:33.164Z,8.67
2018-01-30T12:45:30.634Z,8.74
2018-01-30T12:46:30.084Z,8.68
2018-01-30T12:48:26.076Z,8.69
2018-01-30T12:49:26.026Z,8.69
2018-01-30T12:51:21.963Z,8.83
2018-01-30T12:52:22.533Z,8.86
2018-01-30T12:54:22.437Z,8.72
2018-01-30T12:55:22.383Z,8.77
2018-01-30T12:57:19.839Z,8.71
2018-01-30T12:58:18.299Z,8.65
2018-01-30T13:00:17.236Z,8.71
2018-01-30T13:01:16.320Z,8.72
2018-01-30T13:03:15.283Z,8.77
2018-01-30T13:04:14.253Z,8.74
2018-01-30T13:06:13.711Z,8.79
2018-01-30T13:07:12.312Z,8.87
2018-01-30T13:09:12.178Z,8.97
2018-01-30T13:10:10.744Z,9.03
2018-01-30T13:12:08.200Z,9.11
2018-01-30T13:13:08.167Z,9.19
2018-01-30T13:15:06.185Z,9.21
2018-01-30T13:16:06.633Z,9.16
2018-01-30T13:18:09.583Z,9.16
2018-01-30T13:19:06.529Z,8.95
2018-01-30T13:21:05.984Z,9.20
2018-01-30T13:22:05.008Z,9.26
2018-01-30T13:24:02.382Z,9.17
2018-01-30T13:25:02.401Z,9.23
2018-01-30T13:27:00.851Z,9.14
2018-01-30T13:28:00.302Z,9.14
2018-01-30T13:29:58.785Z,9.24
2018-01-30T13:30:58.228Z,9.45
2018-01-30T13:32:56.172Z,9.42
2018-01-30T13:33:56.156Z,9.50
2018-01-30T13:35:52.681Z,9.52
2018-01-30T13:36:52.092Z,9.55
2018-01-30T13:38:48.065Z,9.52
2018-01-30T13:39:48.048Z,9.41
2018-01-30T13:41:44.027Z,9.44
2018-01-30T13:42:43.975Z,9.42
2018-01-30T13:44:40.939Z,9.39
2018-01-30T13:45:40.941Z,9.29
2018-01-30T13:47:38.480Z,9.47
2018-01-30T13:48:38.042Z,9.52
2018-01-30T13:50:40.267Z,9.47
2018-01-30T13:51:40.884Z,9.44
2018-01-30T13:53:39.208Z,9.27
2018-01-30T13:54:39.143Z,9.32
2018-01-30T13:56:34.230Z,9.32
2018-01-30T13:57:34.764Z,9.34
2018-01-30T13:59:33.253Z,9.29
2018-01-30T14:00:34.200Z,9.30
2018-01-30T14:02:28.421Z,9.48
2018-01-30T14:03:28.992Z,9.52
2018-01-30T14:05:28.922Z,9.45
2018-01-30T14:06:30.383Z,9.48
2018-01-30T14:08:26.861Z,9.48
2018-01-30T14:09:27.678Z,9.47
2018-01-30T14:11:26.261Z,9.67
2018-01-30T14:12:25.805Z,9.75
2018-01-30T14:14:22.829Z,9.81
2018-01-30T14:15:22.841Z,9.80
2018-01-30T14:17:20.789Z,9.80
2018-01-30T14:18:20.780Z,9.81
2018-01-30T14:20:18.729Z,9.93
2018-01-30T14:21:18.699Z,9.82
2018-01-30T14:23:18.238Z,9.88
2018-01-30T14:24:16.746Z,9.88
2018-01-30T14:26:27.696Z,9.77
2018-01-30T14:27:14.817Z,9.80
2018-01-30T14:29:14.264Z,9.70
2018-01-30T14:30:12.857Z,9.72
2018-01-30T14:32:10.865Z,9.75
2018-01-30T14:33:10.825Z,9.80
2018-01-30T14:35:09.276Z,9.75
2018-01-30T14:36:08.716Z,9.78
2018-01-30T14:38:06.706Z,9.80
2018-01-30T14:39:06.651Z,9.75
2018-01-30T14:41:05.149Z,9.70
2018-01-30T14:42:04.587Z,9.63
2018-01-30T14:44:05.034Z,9.70
2018-01-30T14:45:05.032Z,9.71
2018-01-30T14:47:04.254Z,9.70
2018-01-30T14:48:04.961Z,9.63
2018-01-30T14:50:00.943Z,9.70
2018-01-30T14:51:01.143Z,9.67
2018-01-30T14:52:58.922Z,9.70
2018-01-30T14:53:58.890Z,9.77
2018-01-30T14:55:56.367Z,9.77
2018-01-30T14:56:54.830Z,9.63
2018-01-30T14:58:52.783Z,9.67
2018-01-30T14:59:52.795Z,9.66
2018-01-30T15:01:50.818Z,9.70
2018-01-30T15:02:50.850Z,9.66
2018-01-30T15:04:45.364Z,9.67
2018-01-30T15:05:45.324Z,9.64
2018-01-30T15:07:42.277Z,9.57
2018-01-30T15:08:41.232Z,9.57
2018-01-30T15:10:40.694Z,9.64
2018-01-30T15:11:39.164Z,9.57
2018-01-30T15:13:37.155Z,9.48
2018-01-30T15:14:37.113Z,9.50
2018-01-30T15:16:33.083Z,9.52
2018-01-30T15:17:33.054Z,9.42
2018-01-30T15:19:31.538Z,9.45
2018-01-30T15:20:31.000Z,9.44
2018-01-30T15:22:29.475Z,9.44
2018-01-30T15:23:29.434Z,9.47
2018-01-30T15:25:27.431Z,9.37
2018-01-30T15:26:26.939Z,9.27
2018-01-30T15:28:26.880Z,9.26
2018-01-30T15:29:25.014Z,9.21
2018-01-30T15:31:26.393Z,9.17
2018-01-30T15:32:25.371Z,9.16
2018-01-30T15:34:23.825Z,9.20
2018-01-30T15:35:23.332Z,9.17
2018-01-30T15:37:23.328Z,9.05
2018-01-30T15:38:21.319Z,9.04
2018-01-30T15:40:21.763Z,8.98
2018-01-30T15:41:21.754Z,9.01
2018-01-30T15:43:19.742Z,9.00
2018-01-30T15:44:19.737Z,8.86
2018-01-30T15:46:18.667Z,8.97
2018-01-30T15:47:17.661Z,8.85
2018-01-30T15:49:16.097Z,8.67
2018-01-30T15:50:15.632Z,8.61
2018-01-30T15:52:17.059Z,8.71
2018-01-30T15:53:16.003Z,8.49
2018-01-30T15:55:14.963Z,8.49
2018-01-30T15:56:13.942Z,8.53
2018-01-30T15:58:14.438Z,8.44
2018-01-30T15:59:14.440Z,8.40
2018-01-30T16:01:13.419Z,8.42
2018-01-30T16:02:12.931Z,8.49
2018-01-30T16:04:13.275Z,8.44
2018-01-30T16:05:12.796Z,8.36
2018-01-30T16:07:10.730Z,8.32
2018-01-30T16:08:11.273Z,8.43
2018-01-30T16:10:09.656Z,8.31
2018-01-30T16:11:10.660Z,8.22
2018-01-30T16:13:05.728Z,8.13
2018-01-30T16:14:04.703Z,8.09
2018-01-30T16:16:02.766Z,8.04
2018-01-30T16:17:02.715Z,8.06
2018-01-30T16:19:00.802Z,7.98
2018-01-30T16:20:00.794Z,7.95
2018-01-30T16:21:58.746Z,7.88
2018-01-30T16:22:58.682Z,7.83
2018-01-30T16:24:59.621Z,7.86
2018-01-30T16:25:59.116Z,7.83
2018-01-30T16:27:58.087Z,7.78
2018-01-30T16:28:56.028Z,7.92
2018-01-30T16:30:53.965Z,7.83
2018-01-30T16:31:53.968Z,7.88
2018-01-30T16:33:51.898Z,7.83
2018-01-30T16:34:51.917Z,7.86
2018-01-30T16:36:50.361Z,7.86
2018-01-30T16:37:49.836Z,7.73
2018-01-30T16:39:50.347Z,7.75
2018-01-30T16:40:50.798Z,7.78
2018-01-30T16:42:48.282Z,7.56
2018-01-30T16:43:48.749Z,7.48
2018-01-30T16:45:48.672Z,7.55
2018-01-30T16:46:49.171Z,7.49
2018-01-30T16:48:47.647Z,7.55
2018-01-30T16:49:46.592Z,7.47
2018-01-30T16:51:44.545Z,7.45
2018-01-30T16:52:44.536Z,7.47
2018-01-30T16:54:46.524Z,7.54
2018-01-30T16:55:46.496Z,7.54
2018-01-30T16:57:46.427Z,7.48
2018-01-30T16:58:45.424Z,7.44
2018-01-30T17:00:45.882Z,7.45
2018-01-30T17:01:46.398Z,7.31
2018-01-30T17:03:44.312Z,7.30
2018-01-30T17:04:44.279Z,7.37
2018-01-30T17:06:44.729Z,7.39
2018-01-30T17:07:44.727Z,7.31
2018-01-30T17:09:42.650Z,7.31
2018-01-30T17:10:41.128Z,7.34
2018-01-30T17:12:42.076Z,7.40
2018-01-30T17:13:41.536Z,7.41
2018-01-30T17:15:43.502Z,7.45
2018-01-30T17:16:42.526Z,7.45
2018-01-30T17:18:43.937Z,7.51
2018-01-30T17:19:43.935Z,7.56
2018-01-30T17:21:44.435Z,7.52
2018-01-30T17:22:45.343Z,7.49
2018-01-30T17:24:44.827Z,7.63
2018-01-30T17:25:44.267Z,7.67
2018-01-30T17:27:43.718Z,7.68
2018-01-30T17:28:42.346Z,7.67
2018-01-30T17:30:42.849Z,7.70
2018-01-30T17:31:43.257Z,7.64
2018-01-30T17:33:44.702Z,7.71
2018-01-30T17:34:43.671Z,7.74
2018-01-30T17:36:43.648Z,7.71
2018-01-30T17:37:44.116Z,7.78
2018-01-30T17:39:44.554Z,7.70
2018-01-30T17:40:44.020Z,7.67
2018-01-30T17:42:45.545Z,7.64
2018-01-30T17:43:45.072Z,7.73
2018-01-30T17:45:44.518Z,7.56
2018-01-30T17:46:42.524Z,7.59
2018-01-30T17:48:39.037Z,7.61
2018-01-30T17:49:38.462Z,7.51
2018-01-30T17:51:40.459Z,7.49
2018-01-30T17:52:39.024Z,7.55
2018-01-30T17:54:39.875Z,7.54
2018-01-30T17:55:39.355Z,7.49
2018-01-30T17:57:39.756Z,7.52
2018-01-30T17:58:39.779Z,7.49
2018-01-30T18:00:40.756Z,7.54
2018-01-30T18:01:40.212Z,7.51
2018-01-30T18:03:40.688Z,7.54
2018-01-30T18:04:40.675Z,7.54
2018-01-30T18:06:42.116Z,7.58
2018-01-30T18:07:42.087Z,7.48
2018-01-30T18:09:42.566Z,7.52
2018-01-30T18:10:42.670Z,7.52
2018-01-30T18:12:44.517Z,7.63
2018-01-30T18:13:43.001Z,7.61
2018-01-30T18:15:43.534Z,7.58
2018-01-30T18:16:43.588Z,7.59
2018-01-30T18:19:01.032Z,7.63
2018-01-30T18:20:01.594Z,7.64
2018-01-30T18:22:00.997Z,7.74
2018-01-30T18:23:00.976Z,7.68
2018-01-30T18:24:59.535Z,7.73
2018-01-30T18:25:59.036Z,7.71
2018-01-30T18:27:54.963Z,7.71
2018-01-30T18:28:54.957Z,7.70
2018-01-30T18:30:57.914Z,7.55
2018-01-30T18:31:56.477Z,7.61
2018-01-30T18:33:56.951Z,7.63
2018-01-30T18:34:56.959Z,7.67
2018-01-30T18:36:58.424Z,7.61
2018-01-30T18:37:58.519Z,7.56
2018-01-30T18:39:53.354Z,7.61
2018-01-30T18:40:53.345Z,7.63
2018-01-30T18:42:53.801Z,7.67
2018-01-30T18:43:53.829Z,7.70
2018-01-30T18:45:54.253Z,7.68
2018-01-30T18:46:55.720Z,7.68
2018-01-30T18:48:53.213Z,7.75
2018-01-30T18:49:52.186Z,7.71
2018-01-30T18:51:53.643Z,7.67
2018-01-30T18:52:53.675Z,7.70
2018-01-30T18:54:48.624Z,7.70
2018-01-30T18:55:49.116Z,7.78
2018-01-30T18:57:49.533Z,7.75
2018-01-30T18:58:49.545Z,7.74
2018-01-30T19:00:49.488Z,7.70
2018-01-30T19:01:49.925Z,7.82
2018-01-30T19:03:49.910Z,7.73
2018-01-30T19:04:50.402Z,7.70
2018-01-30T19:06:50.314Z,7.75
2018-01-30T19:07:48.974Z,7.73
2018-01-30T19:09:48.864Z,7.75
2018-01-30T19:10:46.956Z,7.73
2018-01-30T19:12:48.470Z,7.74
2018-01-30T19:13:47.934Z,7.78
2018-01-30T19:15:47.812Z,7.78
2018-01-30T19:16:47.825Z,7.74
2018-01-30T19:18:48.372Z,7.75
2018-01-30T19:19:48.814Z,7.82
2018-01-30T19:21:49.628Z,7.73
2018-01-30T19:22:48.683Z,7.70
2018-01-30T19:24:47.638Z,7.70
2018-01-30T19:25:47.143Z,7.71
2018-01-30T19:27:47.039Z,7.56
2018-01-30T19:28:47.543Z,7.61
2018-01-30T19:30:45.585Z,7.58
2018-01-30T19:31:45.129Z,7.52
2018-01-30T19:33:46.523Z,7.71
2018-01-30T19:34:45.521Z,7.64
2018-01-30T19:36:44.469Z,7.63
2018-01-30T19:37:43.500Z,7.56
2018-01-30T19:39:39.940Z,7.68
2018-01-30T19:40:40.410Z,7.67
2018-01-30T19:42:38.418Z,7.68
2018-01-30T19:43:39.297Z,7.58
2018-01-30T19:45:38.415Z,7.61
2018-01-30T19:46:37.898Z,7.51